Time;durP1;ratioP1;P1;durP2;ratioP2;P2;SDS_P1;SDS_P2;PMS_P1;PMS_P2;Temp;Humidity;BMP_temperature;BMP_pressure;BME280_temperature;BME280_humidity;BME280_pressure;Samples;Min_cycle;Max_cycle;Signal;HPM_P1;HPM_P2
2023/12/17 19:07:11;;;;;;;9.93;4.13;;;19.20;58.10;;;;;;5108633;27;20391;-60
2023/12/17 19:09:37;;;;;;;6.95;4.50;;;19.30;59.00;;;;;;5124613;22;20517;-61
2023/12/17 19:12:03;;;;;;;12.23;5.05;;;19.30;58.00;;;;;;5108900;28;20050;-61
2023/12/17 19:14:29;;;;;;;7.63;4.65;;;19.40;57.90;;;;;;5108979;28;20028;-61
2023/12/17 19:16:55;;;;;;;10.20;4.30;;;19.40;57.90;;;;;;5108952;28;20555;-61
2023/12/17 19:19:20;;;;;;;8.10;3.85;;;19.40;58.40;;;;;;5109167;28;20050;-61
2023/12/17 19:21:48;;;;;;;7.78;3.92;;;19.40;58.40;;;;;;5109116;28;20028;-61
2023/12/17 19:24:16;;;;;;;6.85;4.13;;;19.40;58.60;;;;;;5108964;28;20020;-61
2023/12/17 19:26:42;;;;;;;8.07;4.65;;;19.40;58.20;;;;;;5108673;28;20028;-62
2023/12/17 19:29:09;;;;;;;6.85;4.20;;;19.40;58.30;;;;;;5108797;28;20393;-61
2023/12/17 19:31:34;;;;;;;7.03;3.75;;;19.40;58.70;;;;;;5108850;28;20031;-61
2023/12/17 19:34:00;;;;;;;8.15;4.00;;;19.40;58.50;;;;;;5108754;28;20020;-61
2023/12/17 19:36:27;;;;;;;6.55;3.97;;;19.40;58.50;;;;;;5108361;28;20067;-61
2023/12/17 19:38:53;;;;;;;8.05;4.07;;;19.40;58.50;;;;;;5108663;28;20024;-61
2023/12/17 19:41:19;;;;;;;6.70;3.67;;;19.40;58.70;;;;;;5108543;28;20016;-61
2023/12/17 19:43:45;;;;;;;8.48;3.85;;;19.30;58.90;;;;;;5108565;28;20023;-62
2023/12/17 19:46:11;;;;;;;9.75;5.00;;;19.40;58.60;;;;;;5108322;28;20024;-61
2023/12/17 19:48:37;;;;;;;7.22;4.10;;;19.40;59.10;;;;;;5090333;28;20024;-61
2023/12/17 19:51:03;;;;;;;6.78;4.07;;;19.40;58.70;;;;;;5108554;28;20398;-61
2023/12/17 19:53:29;;;;;;;8.32;4.15;;;19.40;58.90;;;;;;5108500;28;20153;-61
2023/12/17 19:55:55;;;;;;;5.28;3.60;;;19.30;58.60;;;;;;5107948;28;20115;-61
2023/12/17 19:58:21;;;;;;;7.43;4.25;;;19.40;59.00;;;;;;5108271;28;20460;-60
2023/12/17 20:00:47;;;;;;;6.10;4.05;;;19.30;58.70;;;;;;5108205;28;20113;-61
2023/12/17 20:03:13;;;;;;;6.20;3.75;;;19.30;58.50;;;;;;5108278;28;20024;-61
2023/12/17 20:05:39;;;;;;;6.25;3.78;;;19.40;58.90;;;;;;5107898;28;20024;-61
2023/12/17 20:08:08;;;;;;;6.43;3.60;;;19.30;58.70;;;;;;5093798;28;20394;-61
2023/12/17 20:10:34;;;;;;;8.95;3.58;;;19.30;58.80;;;;;;5094545;28;20124;-61
2023/12/17 20:13:00;;;;;;;5.55;3.50;;;19.30;58.80;;;;;;5094432;28;20024;-61
2023/12/17 20:15:27;;;;;;;7.72;3.85;;;19.30;58.60;;;;;;5094190;28;20401;-61
2023/12/17 20:17:53;;;;;;;5.63;3.83;;;19.30;58.90;;;;;;5094467;28;20425;-61
2023/12/17 20:20:20;;;;;;;5.05;3.60;;;19.40;58.90;;;;;;5094328;28;20028;-61
2023/12/17 20:22:46;;;;;;;5.72;3.38;;;19.30;58.90;;;;;;5094412;28;20054;-61
2023/12/17 20:25:11;;;;;;;5.88;3.83;;;19.30;59.30;;;;;;5076061;28;20491;-61
2023/12/17 20:27:38;;;;;;;5.68;3.65;;;19.30;59.00;;;;;;5092763;28;20024;-61
2023/12/17 20:30:05;;;;;;;4.75;3.42;;;19.40;59.10;;;;;;5092879;28;20032;-61
2023/12/17 20:32:31;;;;;;;6.28;3.90;;;19.30;59.20;;;;;;5092732;28;20499;-61
2023/12/17 20:34:57;;;;;;;6.28;3.78;;;19.30;59.20;;;;;;5093927;28;20069;-61
2023/12/17 20:37:22;;;;;;;6.47;3.80;;;19.40;59.10;;;;;;5092395;28;20050;-61
2023/12/17 20:39:48;;;;;;;5.97;3.70;;;19.40;59.20;;;;;;5092980;28;20024;-61
2023/12/17 20:42:14;;;;;;;7.18;3.97;;;19.30;59.30;;;;;;5093902;28;20035;-61
2023/12/17 20:44:40;;;;;;;5.20;3.63;;;19.30;59.40;;;;;;5093983;28;20496;-61
2023/12/17 20:47:06;;;;;;;5.68;3.72;;;19.30;59.00;;;;;;5093564;28;20491;-61
2023/12/17 20:49:33;;;;;;;7.03;3.75;;;19.30;59.00;;;;;;5093756;28;20030;-61
2023/12/17 20:52:03;;;;;;;6.25;3.42;;;19.40;59.10;;;;;;5093829;28;20020;-61
2023/12/17 20:54:29;;;;;;;6.53;3.92;;;19.40;59.40;;;;;;5094011;28;20398;-61
2023/12/17 20:56:58;;;;;;;6.07;3.88;;;19.30;59.30;;;;;;5093372;28;20055;-62
2023/12/17 20:59:24;;;;;;;5.47;3.63;;;19.30;59.20;;;;;;5093638;28;20121;-61
2023/12/17 21:01:49;;;;;;;4.80;3.60;;;19.30;59.70;;;;;;5093765;28;20028;-61
2023/12/17 21:04:15;;;;;;;5.25;3.38;;;19.40;59.10;;;;;;5092538;28;20089;-62
2023/12/17 21:06:42;;;;;;;5.70;3.65;;;19.30;59.10;;;;;;5091994;28;20024;-62
2023/12/17 21:09:12;;;;;;;6.80;4.00;;;19.40;59.00;;;;;;5093052;28;20032;-61
2023/12/17 21:11:42;;;;;;;8.77;4.05;;;19.30;59.20;;;;;;5092715;28;20024;-60
2023/12/17 21:14:09;;;;;;;11.23;4.88;;;19.30;59.00;;;;;;5090269;28;20016;-63
2023/12/17 21:16:34;;;;;;;15.63;5.30;;;19.30;59.60;;;;;;5088647;28;20028;-61
2023/12/17 21:19:00;;;;;;;18.55;5.50;;;19.30;59.50;;;;;;5091985;28;20394;-62
2023/12/17 21:21:26;;;;;;;9.48;4.70;;;19.40;59.10;;;;;;5075483;28;20032;-61
2023/12/17 21:23:52;;;;;;;9.15;4.40;;;19.30;59.30;;;;;;5091771;28;20020;-61
2023/12/17 21:26:19;;;;;;;8.98;4.43;;;19.40;59.30;;;;;;5092551;28;20453;-61
2023/12/17 21:28:45;;;;;;;10.18;4.88;;;19.40;59.30;;;;;;5089105;28;20028;-62
2023/12/17 21:31:12;;;;;;;11.68;4.78;;;19.40;59.20;;;;;;5092699;28;20403;-61
2023/12/17 21:33:38;;;;;;;12.02;4.80;;;19.40;59.20;;;;;;5092682;28;20028;-62
2023/12/17 21:36:04;;;;;;;12.02;4.10;;;19.40;59.30;;;;;;5092315;28;20129;-62
2023/12/17 21:38:30;;;;;;;9.73;4.07;;;19.40;59.10;;;;;;5092329;28;20016;-62
2023/12/17 21:40:56;;;;;;;9.63;4.43;;;19.40;58.50;;;;;;5091396;28;20099;-62
2023/12/17 21:43:25;;;;;;;7.50;4.20;;;19.40;59.00;;;;;;5091401;28;20049;-62
2023/12/17 21:45:51;;;;;;;9.48;4.50;;;19.50;59.90;;;;;;5087517;28;20028;-61
2023/12/17 21:48:17;;;;;;;12.43;4.25;;;19.50;60.20;;;;;;5092454;28;20057;-61
2023/12/17 21:50:42;;;;;;;10.48;4.30;;;19.50;60.80;;;;;;5092205;28;20059;-61
2023/12/17 21:53:08;;;;;;;11.95;4.85;;;19.50;59.90;;;;;;5092252;28;20028;-62
2023/12/17 21:55:34;;;;;;;16.33;4.22;;;19.50;59.60;;;;;;5091897;28;20034;-61
2023/12/17 21:58:00;;;;;;;9.52;4.78;;;19.50;59.40;;;;;;5092310;28;20047;-62
2023/12/17 22:00:25;;;;;;;11.52;4.13;;;19.50;59.30;;;;;;5091830;28;20028;-62
2023/12/17 22:02:51;;;;;;;8.65;4.53;;;19.40;59.50;;;;;;5089413;28;20023;-60
2023/12/17 22:05:20;;;;;;;9.27;4.07;;;19.40;59.60;;;;;;5087234;28;20024;-62
2023/12/17 22:07:46;;;;;;;27.63;4.50;;;19.40;59.60;;;;;;5086520;28;20570;-62
2023/12/17 22:10:16;;;;;;;10.18;4.32;;;19.40;59.60;;;;;;5088108;28;20505;-61
2023/12/17 22:12:43;;;;;;;6.55;3.63;;;19.40;59.50;;;;;;5086639;28;20093;-62
2023/12/17 22:15:09;;;;;;;9.23;4.03;;;19.40;59.60;;;;;;5086516;28;20059;-62
2023/12/17 22:17:36;;;;;;;8.50;3.75;;;19.40;59.70;;;;;;5091508;28;20051;-61
2023/12/17 22:20:03;;;;;;;10.88;4.07;;;19.40;59.50;;;;;;5088236;28;20024;-62
2023/12/17 22:22:29;;;;;;;9.13;3.80;;;19.40;60.60;;;;;;5071806;28;20059;-61
2023/12/17 22:24:55;;;;;;;6.03;3.53;;;19.40;59.60;;;;;;5070580;28;20032;-62
2023/12/17 22:27:21;;;;;;;12.60;4.32;;;19.30;59.40;;;;;;5071170;28;20074;-62
2023/12/17 22:29:47;;;;;;;8.27;4.20;;;19.40;59.80;;;;;;5071350;28;20522;-61
2023/12/17 22:32:13;;;;;;;8.93;3.85;;;19.30;59.60;;;;;;5071418;28;20056;-62
2023/12/17 22:34:39;;;;;;;9.88;4.50;;;19.40;59.90;;;;;;5088032;28;20084;-61
2023/12/17 22:37:07;;;;;;;23.55;4.63;;;19.40;60.30;;;;;;5090899;28;20457;-62
2023/12/17 22:39:33;;;;;;;6.32;3.58;;;19.40;61.40;;;;;;5081402;28;20393;-61
2023/12/17 22:41:59;;;;;;;13.80;3.95;;;19.40;60.30;;;;;;5090442;28;20027;-62
2023/12/17 22:44:25;;;;;;;15.40;4.50;;;19.40;60.00;;;;;;5089784;28;20463;-62
2023/12/17 22:46:51;;;;;;;8.82;3.75;;;19.40;60.10;;;;;;5088233;28;20024;-62
2023/12/17 22:49:17;;;;;;;10.02;4.05;;;19.40;60.20;;;;;;5087454;28;20502;-62
2023/12/17 22:51:43;;;;;;;6.85;3.55;;;19.40;60.00;;;;;;5089590;28;20479;-62
2023/12/17 22:54:09;;;;;;;7.15;3.63;;;19.40;60.10;;;;;;5087640;28;20028;-62
2023/12/17 22:56:38;;;;;;;7.30;3.45;;;19.30;60.20;;;;;;5082532;28;20068;-62
2023/12/17 22:59:06;;;;;;;10.65;4.07;;;19.40;59.80;;;;;;5089489;28;20060;-62
2023/12/17 23:01:32;;;;;;;9.32;3.63;;;19.40;59.90;;;;;;5089869;28;20020;-61
2023/12/17 23:03:57;;;;;;;13.52;3.60;;;19.40;60.00;;;;;;5083645;28;20028;-62
2023/12/17 23:06:23;;;;;;;7.57;3.72;;;19.30;60.50;;;;;;5072142;28;20483;-62
2023/12/17 23:08:49;;;;;;;28.23;4.30;;;19.30;60.20;;;;;;5085317;28;20558;-62
2023/12/17 23:11:15;;;;;;;9.32;3.47;;;19.30;60.50;;;;;;5087623;28;20031;-62
2023/12/17 23:13:40;;;;;;;8.55;3.55;;;19.30;60.20;;;;;;5090470;28;20028;-62
2023/12/17 23:16:06;;;;;;;8.80;3.50;;;19.30;60.30;;;;;;5072237;28;20055;-62
2023/12/17 23:18:32;;;;;;;6.43;3.30;;;19.30;60.40;;;;;;5085094;28;20073;-62
2023/12/17 23:20:58;;;;;;;7.13;3.50;;;19.30;60.30;;;;;;5085098;28;20094;-62
2023/12/17 23:23:24;;;;;;;5.65;3.50;;;19.30;60.50;;;;;;5088247;28;20035;-62
2023/12/17 23:25:51;;;;;;;8.57;3.80;;;19.30;60.40;;;;;;5090227;28;20044;-61
2023/12/17 23:28:16;;;;;;;7.53;3.40;;;19.30;60.50;;;;;;5088763;28;20032;-62
2023/12/17 23:30:42;;;;;;;6.68;3.40;;;19.30;60.60;;;;;;5090010;28;20490;-62
2023/12/17 23:33:08;;;;;;;5.22;3.28;;;19.30;60.70;;;;;;5088922;28;20032;-61
2023/12/17 23:35:33;;;;;;;8.57;3.72;;;19.30;60.60;;;;;;5086926;28;20025;-62
2023/12/17 23:37:59;;;;;;;6.70;3.30;;;19.20;60.90;;;;;;5070842;28;20116;-62
2023/12/17 23:40:25;;;;;;;5.85;3.42;;;19.30;60.60;;;;;;5088447;28;20028;-62
2023/12/17 23:42:51;;;;;;;6.97;3.50;;;19.30;60.50;;;;;;5086396;28;20099;-62
2023/12/17 23:45:17;;;;;;;6.45;3.38;;;19.20;60.40;;;;;;5091590;28;20028;-61
2023/12/17 23:47:43;;;;;;;7.20;3.65;;;19.30;60.60;;;;;;5082654;28;20037;-62
2023/12/17 23:50:09;;;;;;;5.60;3.30;;;19.30;60.90;;;;;;5092856;28;20031;-62
2023/12/17 23:52:35;;;;;;;7.05;3.22;;;19.20;60.50;;;;;;5088761;28;20024;-62
2023/12/17 23:55:02;;;;;;;5.43;2.90;;;19.20;60.60;;;;;;5093666;28;20039;-62
2023/12/17 23:57:28;;;;;;;4.22;3.00;;;19.20;60.50;;;;;;5091761;28;20451;-62
2023/12/17 23:59:53;;;;;;;6.13;3.22;;;19.20;60.80;;;;;;5084534;28;20024;-62
